Time;durP1;ratioP1;P1;durP2;ratioP2;P2;SDS_P1;SDS_P2;PMS_P1;PMS_P2;Temp;Humidity;BMP_temperature;BMP_pressure;BME280_temperature;BME280_humidity;BME280_pressure;Samples;Min_cycle;Max_cycle;Signal;HPM_P1;HPM_P2
2023/05/14 00:00:38;;;;;;;4.18;3.40;;;;;;;7.99;45.13;95709.69;4990133;28;20022;-77
2023/05/14 00:03:04;;;;;;;7.80;3.90;;;;;;;8.01;45.50;95704.25;4983553;28;20127;-77
2023/05/14 00:05:30;;;;;;;5.10;3.70;;;;;;;7.98;44.61;95705.41;4984316;28;20470;-77
2023/05/14 00:07:55;;;;;;;5.18;3.70;;;;;;;8.01;44.43;95709.53;4990865;28;20582;-77
2023/05/14 00:10:20;;;;;;;5.95;3.80;;;;;;;7.97;45.14;95702.91;4983553;28;20128;-77
2023/05/14 00:12:46;;;;;;;7.50;4.10;;;;;;;8.05;44.58;95703.78;4988635;28;20037;-77
2023/05/14 00:15:12;;;;;;;4.95;3.78;;;;;;;8.11;44.73;95706.75;4987301;28;20046;-77
2023/05/14 00:17:37;;;;;;;6.45;3.65;;;;;;;8.09;44.54;95701.63;4981300;28;20558;-77
2023/05/14 00:20:05;;;;;;;6.28;3.70;;;;;;;8.10;45.02;95700.66;4982400;28;20030;-77
2023/05/14 00:22:32;;;;;;;5.00;3.78;;;;;;;8.09;44.36;95704.28;4982359;28;20038;-77
2023/05/14 00:24:57;;;;;;;4.38;3.40;;;;;;;8.06;45.02;95699.28;4982635;28;20034;-77
2023/05/14 00:27:23;;;;;;;6.53;3.65;;;;;;;8.08;45.24;95699.13;4983556;28;20220;-77
2023/05/14 00:29:48;;;;;;;5.85;3.70;;;;;;;8.03;45.43;95694.31;4982758;28;20062;-77
2023/05/14 00:32:13;;;;;;;4.35;3.40;;;;;;;8.08;44.71;95692.00;4981954;28;20029;-77
2023/05/14 00:34:39;;;;;;;5.90;3.70;;;;;;;8.11;45.08;95694.34;4981768;28;20042;-77
2023/05/14 00:37:04;;;;;;;5.65;3.25;;;;;;;8.13;45.21;95688.88;4988254;28;20041;-77
2023/05/14 00:39:30;;;;;;;4.65;3.60;;;;;;;8.13;44.92;95683.59;4992736;28;20034;-77
2023/05/14 00:41:55;;;;;;;5.05;4.03;;;;;;;8.11;44.99;95680.25;4992957;28;20041;-77
2023/05/14 00:44:21;;;;;;;7.57;4.40;;;;;;;8.12;44.57;95676.59;4993025;28;20026;-77
2023/05/14 00:46:46;;;;;;;7.13;4.80;;;;;;;8.05;44.58;95676.41;4988790;28;20049;-77
2023/05/14 00:49:11;;;;;;;7.80;4.30;;;;;;;8.05;44.54;95679.91;4965028;28;20037;-77
2023/05/14 00:51:37;;;;;;;5.55;3.85;;;;;;;8.00;44.70;95678.72;4949354;28;20106;-77
2023/05/14 00:54:03;;;;;;;4.75;3.80;;;;;;;8.00;44.99;95674.28;4963785;28;20426;-77
2023/05/14 00:56:28;;;;;;;7.70;3.97;;;;;;;8.00;44.95;95670.78;4986602;28;20050;-77
2023/05/14 00:58:54;;;;;;;7.30;4.20;;;;;;;8.00;45.23;95668.97;4988152;28;20045;-77
2023/05/14 01:01:19;;;;;;;4.88;3.75;;;;;;;8.04;45.21;95670.31;4989718;28;20029;-76
2023/05/14 01:03:45;;;;;;;4.95;3.92;;;;;;;8.09;45.17;95666.34;4985997;28;20054;-77
2023/05/14 01:06:33;;;;;;;7.30;3.88;;;;;;;8.09;45.08;95663.69;4981376;28;20035;-77
2023/05/14 01:09:09;;;;;;;5.30;4.05;;;;;;;7.94;45.80;95661.63;4978602;28;20125;-76
2023/05/14 01:12:07;;;;;;;4.90;3.55;;;;;;;8.04;45.15;95662.34;4965222;28;20036;-77
2023/05/14 01:14:54;;;;;;;5.28;3.60;;;;;;;8.04;46.10;95664.16;4986756;28;20507;-76
2023/05/14 01:17:21;;;;;;;5.22;3.80;;;;;;;8.13;45.02;95662.38;4980781;28;20359;-76
2023/05/14 01:19:47;;;;;;;7.00;3.78;;;;;;;8.20;45.00;95663.38;4981474;28;20045;-77
2023/05/14 01:22:12;;;;;;;6.82;3.95;;;;;;;8.21;45.10;95662.38;4992001;28;20577;-77
2023/05/14 01:24:38;;;;;;;4.43;3.47;;;;;;;8.17;45.00;95655.75;4986035;28;20061;-76
2023/05/14 01:27:06;;;;;;;5.65;3.63;;;;;;;8.18;44.54;95662.72;4996767;28;20234;-76
2023/05/14 01:29:32;;;;;;;4.97;3.72;;;;;;;8.14;44.74;95651.59;4986687;28;20474;-77
2023/05/14 01:31:57;;;;;;;4.45;3.60;;;;;;;8.11;44.79;95653.72;4972173;28;20071;-77
2023/05/14 01:34:23;;;;;;;5.75;3.53;;;;;;;8.02;45.16;95653.72;4971175;28;20181;-77
2023/05/14 01:36:49;;;;;;;4.45;3.63;;;;;;;8.08;44.88;95654.03;4984852;28;20048;-77
2023/05/14 01:39:14;;;;;;;8.30;3.50;;;;;;;8.03;44.62;95652.72;4984521;28;20051;-77
2023/05/14 01:41:41;;;;;;;6.45;3.90;;;;;;;8.04;44.77;95653.56;4968099;28;20077;-77
2023/05/14 01:44:08;;;;;;;6.22;3.67;;;;;;;7.99;44.83;95651.38;4985648;28;20036;-77
2023/05/14 01:46:33;;;;;;;5.80;4.00;;;;;;;7.94;44.96;95659.00;4980823;28;20444;-77
2023/05/14 01:48:59;;;;;;;4.97;3.90;;;;;;;7.86;45.20;95654.47;4985897;28;20041;-77
2023/05/14 01:51:24;;;;;;;5.88;3.60;;;;;;;7.75;44.94;95650.25;4986595;28;20057;-77
2023/05/14 01:53:50;;;;;;;6.90;4.25;;;;;;;7.71;44.63;95648.91;4969573;28;20038;-77
2023/05/14 01:56:20;;;;;;;7.43;4.10;;;;;;;7.67;44.88;95644.94;4987889;28;20061;-77
2023/05/14 01:58:46;;;;;;;4.82;3.70;;;;;;;7.66;44.69;95645.94;4986644;28;20065;-77
2023/05/14 02:01:11;;;;;;;4.80;3.58;;;;;;;7.62;44.69;95647.25;4985394;28;20422;-77
2023/05/14 02:03:37;;;;;;;5.40;3.97;;;;;;;7.33;44.96;95651.88;4984175;28;20056;-77
2023/05/14 02:06:02;;;;;;;7.22;4.32;;;;;;;7.00;45.95;95644.56;4987555;28;20042;-77
2023/05/14 02:08:27;;;;;;;5.72;3.97;;;;;;;7.06;45.81;95648.41;4995103;28;20442;-77
2023/05/14 02:10:53;;;;;;;4.40;3.92;;;;;;;7.07;45.67;95642.13;4998334;28;20038;-77
2023/05/14 02:13:18;;;;;;;6.43;4.15;;;;;;;7.07;45.91;95643.94;4995983;28;20038;-77
2023/05/14 02:15:44;;;;;;;8.32;3.72;;;;;;;7.12;45.86;95639.84;4999070;28;20040;-77
2023/05/14 02:18:09;;;;;;;5.47;4.22;;;;;;;7.18;45.62;95638.41;4994270;28;20076;-77
2023/05/14 02:20:34;;;;;;;6.88;4.18;;;;;;;7.14;45.63;95642.31;4986182;28;20089;-77
2023/05/14 02:23:00;;;;;;;6.25;3.97;;;;;;;7.20;45.21;95636.41;4984829;28;20328;-77
2023/05/14 02:25:25;;;;;;;8.13;4.28;;;;;;;7.21;45.75;95640.72;4989390;28;20072;-77
2023/05/14 02:27:51;;;;;;;7.05;4.10;;;;;;;7.16;45.34;95635.06;4988948;28;20229;-77
2023/05/14 02:30:16;;;;;;;6.28;4.20;;;;;;;7.02;45.70;95629.38;4994296;28;20446;-77
2023/05/14 02:32:41;;;;;;;5.53;4.20;;;;;;;6.99;45.59;95624.38;4992127;28;20050;-77
2023/05/14 02:35:07;;;;;;;6.85;4.25;;;;;;;6.94;45.74;95624.00;4995705;28;20340;-77
2023/05/14 02:37:33;;;;;;;6.35;4.18;;;;;;;7.00;45.54;95627.84;4990590;28;20155;-77
2023/05/14 02:39:59;;;;;;;9.13;4.43;;;;;;;6.96;45.51;95624.69;4993306;28;20091;-77
2023/05/14 02:42:24;;;;;;;8.45;4.50;;;;;;;6.96;45.59;95623.84;4984037;28;20344;-77
2023/05/14 02:44:51;;;;;;;7.20;4.55;;;;;;;6.99;45.99;95632.31;4983530;28;20415;-77
2023/05/14 02:47:16;;;;;;;5.22;4.13;;;;;;;7.02;45.27;95626.72;4985648;28;20061;-76
2023/05/14 02:49:41;;;;;;;5.32;4.25;;;;;;;6.99;45.56;95627.03;4967792;28;20045;-76
2023/05/14 02:52:07;;;;;;;5.75;3.75;;;;;;;6.96;45.37;95623.84;4984508;28;20041;-77
2023/05/14 02:54:33;;;;;;;6.03;3.72;;;;;;;7.02;45.47;95623.22;4983997;28;20042;-77
2023/05/14 02:56:58;;;;;;;5.47;4.00;;;;;;;7.02;45.60;95618.78;4981612;28;20316;-77
2023/05/14 02:59:23;;;;;;;6.80;4.10;;;;;;;7.07;45.68;95622.78;4980795;28;20100;-77
2023/05/14 03:01:49;;;;;;;8.25;3.65;;;;;;;7.05;45.36;95617.63;4983949;28;20108;-77
2023/05/14 03:04:14;;;;;;;5.35;3.85;;;;;;;7.06;45.98;95615.78;4965714;28;20042;-77
2023/05/14 03:06:40;;;;;;;5.07;3.83;;;;;;;7.07;45.58;95605.06;4985443;28;20052;-77
2023/05/14 03:09:06;;;;;;;5.88;3.60;;;;;;;7.07;46.00;95610.34;4966177;28;20125;-77
2023/05/14 03:11:31;;;;;;;6.13;3.90;;;;;;;7.02;46.22;95608.19;4982952;28;20046;-77
2023/05/14 03:13:57;;;;;;;5.78;3.50;;;;;;;6.97;46.09;95610.44;4982691;28;20038;-77
2023/05/14 03:16:22;;;;;;;5.32;4.00;;;;;;;7.01;46.20;95606.50;4950564;28;20069;-76
2023/05/14 03:18:47;;;;;;;8.02;4.25;;;;;;;7.03;46.13;95606.34;4984117;28;20038;-77
2023/05/14 03:21:13;;;;;;;5.43;3.50;;;;;;;6.97;46.58;95605.16;4983778;28;20096;-77
2023/05/14 03:23:38;;;;;;;5.07;4.25;;;;;;;6.98;46.35;95600.69;4981803;28;20038;-77
2023/05/14 03:26:04;;;;;;;5.57;3.95;;;;;;;6.98;46.93;95596.25;4988507;28;20357;-77
2023/05/14 03:28:29;;;;;;;4.88;3.90;;;;;;;6.96;46.62;95598.22;4985524;28;20030;-77
2023/05/14 03:30:55;;;;;;;4.88;3.50;;;;;;;6.94;46.60;95599.34;4985915;28;20041;-77
2023/05/14 03:33:20;;;;;;;4.25;3.70;;;;;;;6.84;47.00;95594.16;4988410;28;20505;-77
2023/05/14 03:35:45;;;;;;;5.18;3.95;;;;;;;6.81;46.91;95594.47;4982833;28;20026;-77
2023/05/14 03:38:11;;;;;;;4.88;3.47;;;;;;;6.82;47.33;95593.47;4988826;28;20090;-77
2023/05/14 03:40:36;;;;;;;4.43;3.90;;;;;;;6.81;47.89;95590.00;4985184;28;20414;-77
2023/05/14 03:43:02;;;;;;;5.85;3.80;;;;;;;6.61;48.19;95594.66;4983414;28;20064;-77
2023/05/14 03:45:29;;;;;;;5.63;3.78;;;;;;;6.68;48.06;95590.41;4983195;28;20135;-77
2023/05/14 03:47:54;;;;;;;6.95;4.43;;;;;;;6.79;48.33;95591.13;4985330;28;20038;-77
2023/05/14 03:50:20;;;;;;;7.82;4.00;;;;;;;6.92;47.82;95591.56;4981459;28;20069;-77
2023/05/14 03:52:45;;;;;;;5.07;3.80;;;;;;;7.06;47.67;95594.63;4985971;28;20034;-77
2023/05/14 03:55:10;;;;;;;4.90;3.83;;;;;;;6.96;48.14;95592.91;4984170;28;20069;-77
2023/05/14 03:57:36;;;;;;;4.28;3.70;;;;;;;7.04;48.01;95592.13;4979306;28;20049;-77
2023/05/14 04:00:02;;;;;;;4.68;3.88;;;;;;;7.08;47.93;95590.84;4968666;28;20039;-77
2023/05/14 04:02:28;;;;;;;5.32;4.15;;;;;;;7.06;48.03;95591.97;4972897;28;20193;-77
2023/05/14 04:04:53;;;;;;;5.63;4.00;;;;;;;7.20;47.89;95585.25;4983918;28;20685;-77
2023/05/14 04:07:19;;;;;;;4.70;3.80;;;;;;;7.11;48.07;95590.50;4988054;28;20539;-78
2023/05/14 04:09:44;;;;;;;6.07;3.90;;;;;;;7.12;48.47;95594.00;4984391;28;20034;-77
2023/05/14 04:12:09;;;;;;;4.93;3.60;;;;;;;7.28;47.94;95595.91;4981204;28;20030;-77
2023/05/14 04:14:35;;;;;;;7.57;4.13;;;;;;;7.28;48.20;95595.91;4965942;28;20033;-77
2023/05/14 04:17:00;;;;;;;5.53;4.30;;;;;;;7.30;47.80;95595.75;4982271;28;20038;-77
2023/05/14 04:19:26;;;;;;;8.88;4.40;;;;;;;7.34;48.30;95589.97;4986301;28;20372;-77
2023/05/14 04:21:51;;;;;;;8.48;4.50;;;;;;;7.23;48.56;95599.03;4982067;28;20070;-77
2023/05/14 04:24:16;;;;;;;4.35;3.90;;;;;;;7.43;48.15;95598.78;4987026;28;20077;-77
2023/05/14 04:26:42;;;;;;;7.05;4.40;;;;;;;7.21;49.42;95597.53;4988028;28;20038;-77
2023/05/14 04:29:07;;;;;;;4.80;4.05;;;;;;;7.18;49.82;95598.69;4986074;28;20033;-77
2023/05/14 04:31:33;;;;;;;5.75;3.90;;;;;;;7.69;48.52;95589.97;4990019;28;20554;-77
2023/05/14 04:33:58;;;;;;;6.35;4.03;;;;;;;7.94;48.16;95590.06;4985588;28;20038;-77
2023/05/14 04:36:23;;;;;;;6.57;3.85;;;;;;;8.08;48.17;95593.06;4990771;28;20036;-76
2023/05/14 04:38:49;;;;;;;5.80;4.00;;;;;;;8.23;47.36;95591.44;4982664;28;20117;-77
2023/05/14 04:41:14;;;;;;;5.85;3.90;;;;;;;8.44;47.57;95590.94;4984965;28;20084;-77
2023/05/14 04:43:40;;;;;;;4.43;4.00;;;;;;;8.62;47.18;95587.31;4966521;28;20034;-77
2023/05/14 04:46:05;;;;;;;5.07;3.88;;;;;;;8.71;46.78;95585.50;4984858;28;20050;-77
2023/05/14 04:48:31;;;;;;;5.75;3.72;;;;;;;8.66;47.05;95587.81;4988550;28;20031;-76
2023/05/14 04:50:56;;;;;;;5.43;3.97;;;;;;;8.83;47.02;95588.63;4969512;28;20043;-77
2023/05/14 04:53:21;;;;;;;5.28;3.80;;;;;;;8.93;47.00;95588.44;4985936;28;20108;-76
2023/05/14 04:55:47;;;;;;;4.85;3.90;;;;;;;9.10;46.30;95589.28;4987078;28;20576;-76
2023/05/14 04:58:12;;;;;;;4.00;3.60;;;;;;;9.15;46.46;95586.13;4985347;28;20053;-76
2023/05/14 05:00:38;;;;;;;4.47;3.75;;;;;;;9.25;46.02;95594.72;4987731;28;20093;-77
2023/05/14 05:03:04;;;;;;;4.10;3.70;;;;;;;9.35;46.31;95585.75;4987522;28;20069;-76
2023/05/14 05:05:29;;;;;;;4.40;3.90;;;;;;;9.36;46.33;95587.38;4990495;28;20038;-76
2023/05/14 05:07:55;;;;;;;5.18;3.85;;;;;;;9.44;46.45;95592.66;4986648;28;20397;-77
2023/05/14 05:10:20;;;;;;;5.45;3.80;;;;;;;9.59;46.15;95600.78;4990104;28;20080;-77
2023/05/14 05:12:46;;;;;;;4.85;3.95;;;;;;;9.37;46.87;95595.19;4990999;28;20045;-76
2023/05/14 05:15:11;;;;;;;4.60;3.78;;;;;;;9.69;46.14;95600.56;4989788;28;20049;-76
2023/05/14 05:17:36;;;;;;;5.35;4.07;;;;;;;9.91;45.64;95595.47;4990183;28;20053;-76
2023/05/14 05:20:04;;;;;;;4.93;3.63;;;;;;;9.98;46.40;95596.44;4994625;28;20420;-76
2023/05/14 05:22:29;;;;;;;3.90;3.50;;;;;;;10.13;45.69;95595.72;4989690;28;20510;-76
2023/05/14 05:24:55;;;;;;;6.05;3.80;;;;;;;10.20;45.47;95599.34;4988559;28;20033;-77
2023/05/14 05:27:20;;;;;;;5.53;3.80;;;;;;;10.19;45.48;95601.16;4989828;28;20439;-76
2023/05/14 05:29:46;;;;;;;5.07;3.70;;;;;;;10.07;45.98;95602.56;4985788;28;20510;-76
2023/05/14 05:32:11;;;;;;;5.72;3.90;;;;;;;10.62;44.80;95603.34;4987139;28;20030;-76
2023/05/14 05:34:37;;;;;;;4.80;3.63;;;;;;;10.90;44.16;95599.28;4988852;28;20038;-76
2023/05/14 05:37:04;;;;;;;7.10;4.40;;;;;;;10.93;44.34;95598.94;4970283;28;20424;-76
2023/05/14 05:39:33;;;;;;;4.88;4.05;;;;;;;11.06;43.86;95594.81;4988126;28;20096;-76
2023/05/14 05:42:00;;;;;;;5.25;4.22;;;;;;;10.95;44.34;95601.44;4984233;28;20034;-76
2023/05/14 05:44:25;;;;;;;4.55;3.63;;;;;;;11.07;43.94;95599.97;4985602;28;20026;-76
2023/05/14 05:46:50;;;;;;;6.05;3.90;;;;;;;11.26;43.63;95603.16;4988612;28;20510;-77
2023/05/14 05:49:16;;;;;;;5.72;3.65;;;;;;;11.54;43.37;95610.50;4990397;28;20077;-76
2023/05/14 05:51:41;;;;;;;6.18;3.72;;;;;;;11.59;43.80;95589.44;4986547;28;20056;-76
2023/05/14 05:54:07;;;;;;;5.30;3.67;;;;;;;11.87;43.32;95590.63;4993286;28;20553;-77
2023/05/14 05:56:32;;;;;;;7.93;3.90;;;;;;;11.89;43.01;95597.41;4997526;28;20042;-76
2023/05/14 05:58:57;;;;;;;6.25;4.05;;;;;;;11.79;42.88;95596.06;4989823;28;20041;-76
2023/05/14 06:01:23;;;;;;;5.28;3.42;;;;;;;12.26;42.55;95601.94;4989692;28;20042;-76
2023/05/14 06:03:48;;;;;;;4.65;3.30;;;;;;;12.29;42.55;95601.56;4973276;28;20054;-76
2023/05/14 06:06:14;;;;;;;6.93;3.58;;;;;;;12.40;42.35;95603.75;4993954;28;20047;-76
2023/05/14 06:08:39;;;;;;;4.43;3.55;;;;;;;12.71;41.57;95606.28;4990408;28;20030;-76
2023/05/14 06:11:05;;;;;;;4.13;3.50;;;;;;;12.74;41.23;95603.22;4987247;28;20435;-77
2023/05/14 06:13:30;;;;;;;3.80;3.40;;;;;;;12.77;41.23;95609.00;4988682;28;20034;-76
2023/05/14 06:15:56;;;;;;;3.97;3.42;;;;;;;13.00;40.71;95605.34;4989180;28;20046;-76
2023/05/14 06:18:21;;;;;;;4.13;3.33;;;;;;;13.12;40.78;95610.94;4988759;28;20057;-76
2023/05/14 06:20:46;;;;;;;5.53;3.00;;;;;;;13.22;41.52;95607.94;4973445;28;20061;-76
2023/05/14 06:23:12;;;;;;;4.88;3.90;;;;;;;13.13;40.84;95609.13;4987237;28;20046;-77
2023/05/14 06:25:37;;;;;;;4.45;3.38;;;;;;;13.44;40.51;95615.91;4995967;28;20041;-76
2023/05/14 06:28:03;;;;;;;5.57;3.22;;;;;;;13.58;40.23;95614.13;4993431;28;20355;-76
2023/05/14 06:30:28;;;;;;;5.55;3.20;;;;;;;13.72;39.63;95614.19;4986803;28;20507;-76
2023/05/14 06:32:54;;;;;;;5.30;3.63;;;;;;;13.80;39.10;95606.00;4987935;28;20066;-78
2023/05/14 06:35:19;;;;;;;3.40;3.10;;;;;;;14.00;39.37;95616.00;4989286;28;20037;-76
2023/05/14 06:37:45;;;;;;;5.65;3.30;;;;;;;14.12;39.45;95609.06;4989467;28;20046;-76
2023/05/14 06:40:11;;;;;;;3.70;3.30;;;;;;;14.18;39.58;95613.59;4983689;28;20507;-76
2023/05/14 06:42:37;;;;;;;4.38;3.25;;;;;;;14.28;39.08;95615.06;4987456;28;20079;-77
2023/05/14 06:45:03;;;;;;;4.13;3.30;;;;;;;14.19;38.86;95614.44;4985806;28;20419;-77
2023/05/14 06:47:28;;;;;;;5.40;3.40;;;;;;;14.48;38.24;95612.44;4970734;28;20026;-76
2023/05/14 06:49:57;;;;;;;4.60;3.20;;;;;;;14.42;38.11;95614.06;4985731;28;20073;-76
2023/05/14 06:52:23;;;;;;;6.40;3.08;;;;;;;14.71;38.17;95617.41;4989528;28;20036;-76
2023/05/14 06:54:48;;;;;;;3.97;3.08;;;;;;;14.84;37.38;95615.81;4991429;28;20045;-77
2023/05/14 06:57:13;;;;;;;3.40;3.00;;;;;;;14.89;37.89;95621.38;4984666;28;20487;-76
2023/05/14 06:59:39;;;;;;;4.95;3.17;;;;;;;14.98;37.65;95613.94;4967141;28;20042;-76
2023/05/14 07:02:04;;;;;;;4.05;3.50;;;;;;;15.02;37.74;95620.53;4968568;28;20039;-77
2023/05/14 07:04:30;;;;;;;3.30;3.00;;;;;;;15.20;37.25;95619.13;4969082;28;20526;-76
2023/05/14 07:06:55;;;;;;;5.78;3.10;;;;;;;15.30;36.63;95614.13;4985875;28;20038;-76
2023/05/14 07:09:21;;;;;;;3.33;3.03;;;;;;;15.39;37.00;95616.59;4970878;28;20034;-77
2023/05/14 07:11:46;;;;;;;5.47;3.13;;;;;;;15.58;37.02;95614.94;4987863;28;20037;-77
2023/05/14 07:14:12;;;;;;;3.40;3.10;;;;;;;15.55;36.63;95616.16;4983955;28;20069;-77
2023/05/14 07:16:37;;;;;;;4.63;3.25;;;;;;;15.46;36.86;95610.19;4987161;28;20034;-77
2023/05/14 07:19:02;;;;;;;3.83;3.40;;;;;;;15.68;36.54;95622.56;4986588;28;20042;-77
2023/05/14 07:21:28;;;;;;;3.30;2.95;;;;;;;15.31;35.83;95612.28;4985705;28;20069;-76
2023/05/14 07:23:53;;;;;;;3.05;2.80;;;;;;;15.14;36.23;95610.03;4982563;28;20029;-76
2023/05/14 07:26:20;;;;;;;2.95;2.63;;;;;;;15.72;35.84;95613.88;4985463;28;20053;-77
2023/05/14 07:28:45;;;;;;;6.05;2.80;;;;;;;15.93;35.87;95603.06;4985006;28;20053;-77
2023/05/14 07:31:12;;;;;;;4.03;2.88;;;;;;;15.29;36.34;95606.28;4994185;28;20041;-77
2023/05/14 07:33:37;;;;;;;3.13;2.83;;;;;;;15.65;35.68;95596.97;4967219;28;20225;-77
2023/05/14 07:36:04;;;;;;;2.80;2.50;;;;;;;15.87;35.76;95607.41;4989629;28;20039;-77
2023/05/14 07:38:29;;;;;;;2.78;2.55;;;;;;;15.91;35.16;95597.91;4985527;28;20042;-76
2023/05/14 07:40:55;;;;;;;3.10;2.80;;;;;;;15.95;34.83;95604.50;4954583;28;20038;-76
2023/05/14 07:43:20;;;;;;;2.60;2.40;;;;;;;16.16;34.49;95604.41;4984637;28;20038;-76
2023/05/14 07:45:46;;;;;;;2.95;2.60;;;;;;;16.05;34.00;95601.34;4992586;28;20522;-77
2023/05/14 07:48:11;;;;;;;2.97;2.53;;;;;;;16.64;32.60;95595.91;4976683;28;20494;-76
2023/05/14 07:50:37;;;;;;;2.55;2.35;;;;;;;16.82;32.61;95598.91;4983417;28;20034;-77
2023/05/14 07:53:02;;;;;;;3.20;2.50;;;;;;;17.03;32.62;95603.88;4991493;28;20065;-77
2023/05/14 07:55:27;;;;;;;3.47;2.42;;;;;;;16.90;31.65;95599.41;4998375;28;20092;-76
2023/05/14 07:57:53;;;;;;;7.15;2.70;;;;;;;16.79;32.20;95599.31;4991546;28;20149;-76
2023/05/14 08:00:18;;;;;;;3.95;2.50;;;;;;;17.28;32.40;95599.56;4994586;28;20406;-77
2023/05/14 08:02:44;;;;;;;4.38;2.50;;;;;;;17.62;31.52;95593.84;4988756;28;20542;-77
2023/05/14 08:05:09;;;;;;;3.20;2.40;;;;;;;17.72;31.01;95594.16;4982932;28;20527;-77
2023/05/14 08:07:34;;;;;;;2.55;2.35;;;;;;;17.74;30.95;95594.72;4967227;28;20030;-78
2023/05/14 08:10:00;;;;;;;3.20;2.40;;;;;;;17.75;31.16;95604.44;4986077;28;20030;-77
2023/05/14 08:12:25;;;;;;;2.60;2.40;;;;;;;17.94;30.79;95600.97;4968989;28;20448;-77
2023/05/14 08:14:51;;;;;;;3.00;2.25;;;;;;;18.31;30.08;95600.91;4983073;28;20145;-77
2023/05/14 08:17:16;;;;;;;3.55;2.60;;;;;;;17.87;30.33;95592.97;4982385;28;20042;-77
2023/05/14 08:19:42;;;;;;;2.70;2.50;;;;;;;18.29;30.02;95603.81;4990522;28;20034;-77
2023/05/14 08:22:07;;;;;;;2.95;2.30;;;;;;;18.74;29.29;95604.47;4991769;28;20038;-77
2023/05/14 08:24:33;;;;;;;2.88;2.58;;;;;;;18.24;30.37;95594.78;4998163;28;20044;-77
2023/05/14 08:26:59;;;;;;;2.65;2.40;;;;;;;18.87;29.89;95602.63;4996655;28;20631;-78
2023/05/14 08:29:24;;;;;;;3.00;2.40;;;;;;;19.26;29.57;95602.19;4987373;28;20064;-77
2023/05/14 08:31:50;;;;;;;3.47;2.50;;;;;;;19.70;29.05;95596.44;4990524;28;20029;-78
2023/05/14 08:34:15;;;;;;;3.42;2.38;;;;;;;19.88;28.85;95597.38;4987343;28;20053;-78
2023/05/14 08:36:41;;;;;;;2.70;2.22;;;;;;;19.95;28.29;95598.03;4967072;28;20238;-78
2023/05/14 08:39:06;;;;;;;2.88;2.35;;;;;;;20.12;27.72;95605.44;4991337;28;20104;-78
2023/05/14 08:41:32;;;;;;;2.85;2.50;;;;;;;20.17;27.49;95603.66;4986704;28;20030;-77
2023/05/14 08:44:10;;;;;;;3.03;2.40;;;;;;;20.21;27.57;95599.41;4986112;28;20662;-77
2023/05/14 08:46:36;;;;;;;2.42;2.10;;;;;;;20.61;27.65;95592.28;4993155;28;20054;-77
2023/05/14 08:49:07;;;;;;;2.55;2.20;;;;;;;20.48;27.16;95595.28;4988959;28;20443;-77
2023/05/14 08:51:34;;;;;;;2.97;2.40;;;;;;;20.30;26.92;95588.22;4992532;28;20100;-78
2023/05/14 08:53:59;;;;;;;3.63;2.40;;;;;;;20.48;27.58;95590.72;4971639;28;20042;-78
2023/05/14 08:56:26;;;;;;;2.45;2.25;;;;;;;20.38;27.43;95589.69;4977094;28;20360;-78
2023/05/14 08:58:51;;;;;;;2.30;2.10;;;;;;;20.57;27.34;95582.22;4987003;28;20030;-78
2023/05/14 09:01:17;;;;;;;2.20;2.10;;;;;;;20.91;26.64;95584.16;4992608;28;20046;-77
2023/05/14 09:03:43;;;;;;;3.78;2.22;;;;;;;20.85;26.34;95575.97;4988372;28;20121;-78
2023/05/14 09:06:08;;;;;;;2.20;2.00;;;;;;;20.95;26.23;95585.31;4989358;28;20038;-78
2023/05/14 09:08:35;;;;;;;2.58;2.13;;;;;;;20.91;26.40;95579.56;4958544;28;20403;-78
2023/05/14 09:11:00;;;;;;;2.33;2.10;;;;;;;20.92;26.25;95573.09;4975436;28;20038;-78
2023/05/14 09:13:25;;;;;;;3.67;2.13;;;;;;;21.02;25.18;95580.53;4971579;28;20485;-78
2023/05/14 09:15:52;;;;;;;2.08;1.90;;;;;;;20.97;25.54;95583.97;4990406;28;20360;-78
2023/05/14 09:18:17;;;;;;;2.08;1.88;;;;;;;20.72;25.81;95574.38;4974452;28;20313;-78
2023/05/14 09:20:43;;;;;;;2.10;2.00;;;;;;;20.66;25.26;95571.84;4995791;28;20030;-78
2023/05/14 09:23:08;;;;;;;2.30;2.10;;;;;;;20.89;25.71;95572.75;4991945;28;20267;-78
2023/05/14 09:25:33;;;;;;;2.20;2.00;;;;;;;20.93;25.20;95572.00;4986153;28;20108;-78
2023/05/14 09:27:59;;;;;;;2.35;2.00;;;;;;;21.25;24.64;95570.63;4990070;28;20027;-79
2023/05/14 09:30:25;;;;;;;3.13;2.10;;;;;;;21.17;25.44;95569.13;4988716;28;20034;-79
2023/05/14 09:32:52;;;;;;;3.33;2.03;;;;;;;20.91;25.88;95574.16;4973814;28;20594;-78
2023/05/14 09:35:20;;;;;;;2.20;2.10;;;;;;;20.90;25.72;95567.09;4987198;28;20052;-78
2023/05/14 09:37:48;;;;;;;2.55;1.80;;;;;;;21.28;26.06;95562.00;4981022;28;20488;-78
2023/05/14 09:40:13;;;;;;;;;;;;;;;21.75;25.33;95551.78;4983810;28;20046;-78
2023/05/14 09:42:39;;;;;;;2.20;2.00;;;;;;;21.40;26.57;95559.19;4972979;28;19921;-78
2023/05/14 09:45:06;;;;;;;1.80;1.67;;;;;;;21.89;25.77;95554.97;4985282;28;20593;-79
2023/05/14 09:47:32;;;;;;;3.30;1.90;;;;;;;21.57;25.50;95556.47;4967377;28;20452;-78
2023/05/14 09:49:57;;;;;;;1.90;1.80;;;;;;;22.09;24.22;95557.09;4985528;28;20042;-78
2023/05/14 09:52:23;;;;;;;2.80;1.90;;;;;;;22.26;24.72;95551.59;4988144;28;20026;-77
2023/05/14 09:54:50;;;;;;;2.72;1.60;;;;;;;22.66;24.00;95554.16;4987402;28;20108;-77
2023/05/14 09:57:16;;;;;;;1.80;1.70;;;;;;;22.78;23.88;95551.28;4974618;28;20041;-78
2023/05/14 09:59:41;;;;;;;1.80;1.70;;;;;;;23.16;24.35;95564.91;4990711;28;20037;-78
2023/05/14 10:02:06;;;;;;;2.08;1.98;;;;;;;23.40;23.24;95559.91;4993441;28;20065;-78
2023/05/14 10:04:32;;;;;;;1.90;1.80;;;;;;;23.47;22.28;95562.38;4991455;28;20159;-78
2023/05/14 10:06:57;;;;;;;3.08;1.70;;;;;;;23.33;21.93;95553.88;4998216;28;20034;-77
2023/05/14 10:09:25;;;;;;;2.95;1.70;;;;;;;23.15;22.51;95547.78;4970898;28;20436;-78
2023/05/14 10:11:53;;;;;;;2.08;1.90;;;;;;;22.40;22.82;95552.00;4988995;28;20026;-78
2023/05/14 10:14:32;;;;;;;3.28;2.00;;;;;;;22.40;23.47;95553.91;4969889;28;20074;-78
2023/05/14 10:16:58;;;;;;;2.10;1.88;;;;;;;22.33;21.98;95548.69;4989311;28;20038;-78
2023/05/14 10:19:24;;;;;;;2.22;1.70;;;;;;;22.39;22.90;95541.41;4988130;28;20034;-78
2023/05/14 10:21:55;;;;;;;2.20;1.90;;;;;;;22.51;22.97;95546.69;4991099;28;20531;-78
2023/05/14 10:24:20;;;;;;;2.25;1.90;;;;;;;22.71;22.87;95537.13;4989513;28;20034;-78
2023/05/14 10:26:46;;;;;;;2.10;2.00;;;;;;;22.65;23.04;95536.25;4991474;28;20095;-78
2023/05/14 10:29:11;;;;;;;2.13;1.90;;;;;;;22.11;23.96;95527.88;4988824;28;20026;-78
2023/05/14 10:31:49;;;;;;;1.80;1.70;;;;;;;22.58;23.94;95533.78;4989697;28;20030;-78
2023/05/14 10:34:36;;;;;;;2.75;1.85;;;;;;;23.11;22.60;95530.34;4989118;28;20320;-77
2023/05/14 10:37:07;;;;;;;1.60;1.50;;;;;;;23.67;22.04;95536.41;4991862;28;20514;-77
2023/05/14 10:39:58;;;;;;;1.98;1.60;;;;;;;23.91;21.55;95530.53;4989580;28;20028;-76
2023/05/14 10:42:25;;;;;;;1.63;1.52;;;;;;;24.01;21.43;95527.88;4985729;28;20603;-77
2023/05/14 10:44:57;;;;;;;6.03;1.70;;;;;;;24.04;21.42;95521.06;4972592;28;20033;-77
2023/05/14 10:47:25;;;;;;;1.83;1.63;;;;;;;24.16;20.19;95510.78;4969470;28;20078;-77
2023/05/14 10:49:55;;;;;;;1.50;1.40;;;;;;;24.61;21.29;95515.72;4986289;28;20342;-77
2023/05/14 10:52:21;;;;;;;1.60;1.50;;;;;;;25.29;20.80;95507.56;4983063;28;20406;-77
2023/05/14 10:54:53;;;;;;;1.87;1.63;;;;;;;25.32;20.25;95509.72;4989383;28;20065;-77
2023/05/14 10:57:26;;;;;;;1.73;1.63;;;;;;;24.82;20.38;95505.66;4987113;28;20067;-77
2023/05/14 10:59:53;;;;;;;2.08;1.42;;;;;;;24.86;19.03;95514.13;4993178;28;20057;-78
2023/05/14 11:02:32;;;;;;;2.95;1.58;;;;;;;23.28;21.69;95513.09;4974698;28;20057;-78
2023/05/14 11:05:06;;;;;;;1.98;1.70;;;;;;;22.98;22.95;95514.53;4998965;28;20518;-78
2023/05/14 11:07:39;;;;;;;1.90;1.80;;;;;;;22.15;24.27;95510.03;4982018;28;20132;-77
2023/05/14 11:10:06;;;;;;;4.05;1.90;;;;;;;21.36;24.40;95510.16;4990343;28;20589;-77
2023/05/14 11:12:32;;;;;;;;;;;;;;;21.59;24.96;95515.59;4986319;28;20038;-78
2023/05/14 11:14:58;;;;;;;4.43;2.17;;;;;;;19.03;26.84;95512.91;4982825;28;19949;-74
2023/05/14 11:17:27;;;;;;;1.92;1.83;;;;;;;18.21;29.19;95504.47;4985879;28;20489;-74
2023/05/14 11:19:54;;;;;;;1.63;1.52;;;;;;;19.37;25.50;95498.03;4984746;28;20022;-74
2023/05/14 11:22:19;;;;;;;1.70;1.60;;;;;;;20.57;24.85;95499.19;4985030;28;20046;-74
2023/05/14 11:24:45;;;;;;;2.10;1.23;;;;;;;21.72;23.69;95495.44;4985405;28;20447;-74
2023/05/14 11:27:10;;;;;;;1.70;1.60;;;;;;;21.20;25.24;95483.91;4992250;28;20038;-74
2023/05/14 11:29:36;;;;;;;2.40;1.58;;;;;;;22.28;23.03;95481.69;4989801;28;20569;-74
2023/05/14 11:32:05;;;;;;;3.05;1.60;;;;;;;23.15;22.20;95481.84;4990045;28;20289;-74